Terminal Aerodrome Forecast
Issued by NWS

Home | Current Version | Previous Version | Text Only | Print | Product List | Glossary On
Versions: 1 2 3 4 5 6 7 8 9 10 11 12 13
000
FTUS46 KSEW 301720
TAFOLM
TAF
KOLM 301720Z 3018/3118 22008KT P6SM BKN020
     FM301900 21008KT P6SM SCT020 BKN060
     FM302200 24008KT P6SM SCT060
     FM310900 19006KT P6SM OVC015
     FM311700 21006KT P6SM SCT020 BKN030=

USA.gov is the U.S. government's official web portal to all federal, state and local government web resources and services.